sensor_id;sensor_type;location;lat;lon;timestamp;temperature;humidity
15997;DHT22;8103;51.340;12.326;2022-07-30T00:01:51;20.20;99.90
15997;DHT22;8103;51.340;12.326;2022-07-30T00:04:18;20.20;99.90
15997;DHT22;8103;51.340;12.326;2022-07-30T00:06:45;20.20;99.90
15997;DHT22;8103;51.340;12.326;2022-07-30T00:09:12;20.20;99.90
15997;DHT22;8103;51.340;12.326;2022-07-30T00:11:39;20.30;99.90
15997;DHT22;8103;51.340;12.326;2022-07-30T00:14:07;20.30;99.90
15997;DHT22;8103;51.340;12.326;2022-07-30T00:16:34;20.30;99.90
15997;DHT22;8103;51.340;12.326;2022-07-30T00:19:01;20.30;99.90
15997;DHT22;8103;51.340;12.326;2022-07-30T00:21:28;20.30;99.90
15997;DHT22;8103;51.340;12.326;2022-07-30T00:24:00;20.30;99.90
15997;DHT22;8103;51.340;12.326;2022-07-30T00:26:28;20.30;99.90
15997;DHT22;8103;51.340;12.326;2022-07-30T00:28:54;20.30;99.90
15997;DHT22;8103;51.340;12.326;2022-07-30T00:31:21;20.30;99.90
15997;DHT22;8103;51.340;12.326;2022-07-30T00:33:48;20.30;99.90
15997;DHT22;8103;51.340;12.326;2022-07-30T00:36:15;20.30;99.90
15997;DHT22;8103;51.340;12.326;2022-07-30T00:38:42;20.30;99.90
15997;DHT22;8103;51.340;12.326;2022-07-30T00:41:09;20.30;99.90
15997;DHT22;8103;51.340;12.326;2022-07-30T00:43:35;20.30;99.90
15997;DHT22;8103;51.340;12.326;2022-07-30T00:46:02;20.30;99.90
15997;DHT22;8103;51.340;12.326;2022-07-30T00:48:29;20.30;99.90
15997;DHT22;8103;51.340;12.326;2022-07-30T00:50:56;20.30;99.90
15997;DHT22;8103;51.340;12.326;2022-07-30T00:53:23;20.20;99.90
15997;DHT22;8103;51.340;12.326;2022-07-30T00:55:50;20.20;99.90
15997;DHT22;8103;51.340;12.326;2022-07-30T00:58:17;20.20;99.90
15997;DHT22;8103;51.340;12.326;2022-07-30T01:00:44;20.20;99.90
15997;DHT22;8103;51.340;12.326;2022-07-30T01:03:11;20.20;99.90
15997;DHT22;8103;51.340;12.326;2022-07-30T01:05:38;20.20;99.90
15997;DHT22;8103;51.340;12.326;2022-07-30T01:08:05;20.20;99.90
15997;DHT22;8103;51.340;12.326;2022-07-30T01:10:31;20.10;99.90
15997;DHT22;8103;51.340;12.326;2022-07-30T01:12:58;20.00;99.90
15997;DHT22;8103;51.340;12.326;2022-07-30T01:15:27;20.00;99.90
15997;DHT22;8103;51.340;12.326;2022-07-30T01:17:59;20.00;99.90
15997;DHT22;8103;51.340;12.326;2022-07-30T01:20:37;20.00;99.90
15997;DHT22;8103;51.340;12.326;2022-07-30T01:23:22;19.90;99.90
15997;DHT22;8103;51.340;12.326;2022-07-30T01:26:06;19.90;99.90
15997;DHT22;8103;51.340;12.326;2022-07-30T01:28:44;19.90;99.90
15997;DHT22;8103;51.340;12.326;2022-07-30T01:31:12;19.90;99.90
15997;DHT22;8103;51.340;12.326;2022-07-30T01:33:43;19.80;99.90
15997;DHT22;8103;51.340;12.326;2022-07-30T01:36:14;19.80;99.90
15997;DHT22;8103;51.340;12.326;2022-07-30T01:38:45;19.90;99.90
15997;DHT22;8103;51.340;12.326;2022-07-30T01:41:17;19.80;99.90
15997;DHT22;8103;51.340;12.326;2022-07-30T01:43:46;19.80;99.90
15997;DHT22;8103;51.340;12.326;2022-07-30T01:46:15;19.80;99.90
15997;DHT22;8103;51.340;12.326;2022-07-30T01:48:44;19.80;99.90
15997;DHT22;8103;51.340;12.326;2022-07-30T01:51:12;19.80;99.90
15997;DHT22;8103;51.340;12.326;2022-07-30T01:53:39;19.70;99.90
15997;DHT22;8103;51.340;12.326;2022-07-30T01:56:09;19.70;99.90
15997;DHT22;8103;51.340;12.326;2022-07-30T01:58:37;19.70;99.90
15997;DHT22;8103;51.340;12.326;2022-07-30T02:01:05;19.70;99.90
15997;DHT22;8103;51.340;12.326;2022-07-30T02:03:33;19.70;99.90
15997;DHT22;8103;51.340;12.326;2022-07-30T02:06:05;19.60;99.90
15997;DHT22;8103;51.340;12.326;2022-07-30T02:08:47;19.60;99.90
15997;DHT22;8103;51.340;12.326;2022-07-30T02:11:17;19.60;99.90
15997;DHT22;8103;51.340;12.326;2022-07-30T02:14:16;19.60;99.90
15997;DHT22;8103;51.340;12.326;2022-07-30T02:16:45;19.60;99.90
15997;DHT22;8103;51.340;12.326;2022-07-30T02:19:16;19.60;99.90
15997;DHT22;8103;51.340;12.326;2022-07-30T02:21:46;19.60;99.90
15997;DHT22;8103;51.340;12.326;2022-07-30T02:24:21;19.60;99.90
15997;DHT22;8103;51.340;12.326;2022-07-30T02:26:55;19.50;99.90
15997;DHT22;8103;51.340;12.326;2022-07-30T02:29:24;19.50;99.90
15997;DHT22;8103;51.340;12.326;2022-07-30T02:31:56;19.50;99.90
15997;DHT22;8103;51.340;12.326;2022-07-30T02:34:24;19.50;99.90
15997;DHT22;8103;51.340;12.326;2022-07-30T02:36:53;19.50;99.90
15997;DHT22;8103;51.340;12.326;2022-07-30T02:39:21;19.50;99.90
15997;DHT22;8103;51.340;12.326;2022-07-30T02:41:49;19.40;99.90
15997;DHT22;8103;51.340;12.326;2022-07-30T02:44:19;19.40;99.90
15997;DHT22;8103;51.340;12.326;2022-07-30T02:46:47;19.40;99.90
15997;DHT22;8103;51.340;12.326;2022-07-30T02:49:19;19.40;99.90
15997;DHT22;8103;51.340;12.326;2022-07-30T02:51:50;19.30;99.90
15997;DHT22;8103;51.340;12.326;2022-07-30T02:54:18;19.30;99.90
15997;DHT22;8103;51.340;12.326;2022-07-30T02:56:46;19.20;99.90
15997;DHT22;8103;51.340;12.326;2022-07-30T02:59:17;19.20;99.90
15997;DHT22;8103;51.340;12.326;2022-07-30T03:01:48;19.20;99.90
15997;DHT22;8103;51.340;12.326;2022-07-30T03:04:18;19.10;99.90
15997;DHT22;8103;51.340;12.326;2022-07-30T03:06:47;19.10;99.90
15997;DHT22;8103;51.340;12.326;2022-07-30T03:09:16;19.20;99.90
15997;DHT22;8103;51.340;12.326;2022-07-30T03:11:44;19.20;99.90
15997;DHT22;8103;51.340;12.326;2022-07-30T03:14:12;19.20;99.90
15997;DHT22;8103;51.340;12.326;2022-07-30T03:16:41;19.20;99.90
15997;DHT22;8103;51.340;12.326;2022-07-30T03:19:11;19.20;99.90
15997;DHT22;8103;51.340;12.326;2022-07-30T03:21:40;19.20;99.90
15997;DHT22;8103;51.340;12.326;2022-07-30T03:24:11;19.20;99.90
15997;DHT22;8103;51.340;12.326;2022-07-30T03:26:40;19.10;99.90
15997;DHT22;8103;51.340;12.326;2022-07-30T03:29:08;19.00;99.90
15997;DHT22;8103;51.340;12.326;2022-07-30T03:31:38;18.90;99.90
15997;DHT22;8103;51.340;12.326;2022-07-30T03:34:08;18.90;99.90
15997;DHT22;8103;51.340;12.326;2022-07-30T03:36:37;18.90;99.90
15997;DHT22;8103;51.340;12.326;2022-07-30T03:39:06;18.90;99.90
15997;DHT22;8103;51.340;12.326;2022-07-30T03:41:35;18.90;99.90
15997;DHT22;8103;51.340;12.326;2022-07-30T03:44:06;18.90;99.90
15997;DHT22;8103;51.340;12.326;2022-07-30T03:46:35;18.80;99.90
15997;DHT22;8103;51.340;12.326;2022-07-30T03:49:02;18.80;99.90
15997;DHT22;8103;51.340;12.326;2022-07-30T03:51:32;18.80;99.90
15997;DHT22;8103;51.340;12.326;2022-07-30T03:54:01;18.80;99.90
15997;DHT22;8103;51.340;12.326;2022-07-30T03:56:28;18.80;99.90
15997;DHT22;8103;51.340;12.326;2022-07-30T03:58:55;18.70;99.90
15997;DHT22;8103;51.340;12.326;2022-07-30T04:01:28;18.60;99.90
15997;DHT22;8103;51.340;12.326;2022-07-30T04:04:03;18.60;99.90
15997;DHT22;8103;51.340;12.326;2022-07-30T04:06:30;18.50;99.90
15997;DHT22;8103;51.340;12.326;2022-07-30T04:08:57;18.50;99.90
15997;DHT22;8103;51.340;12.326;2022-07-30T04:11:24;18.50;99.90
15997;DHT22;8103;51.340;12.326;2022-07-30T04:14:06;18.60;99.90
15997;DHT22;8103;51.340;12.326;2022-07-30T04:17:01;18.50;99.90
15997;DHT22;8103;51.340;12.326;2022-07-30T04:19:39;18.50;99.90
15997;DHT22;8103;51.340;12.326;2022-07-30T04:22:08;18.50;99.90
15997;DHT22;8103;51.340;12.326;2022-07-30T04:24:37;18.40;99.90
15997;DHT22;8103;51.340;12.326;2022-07-30T04:27:05;18.40;99.90
15997;DHT22;8103;51.340;12.326;2022-07-30T04:29:32;18.40;99.90
15997;DHT22;8103;51.340;12.326;2022-07-30T04:32:00;18.40;99.90
15997;DHT22;8103;51.340;12.326;2022-07-30T04:34:27;18.40;99.90
15997;DHT22;8103;51.340;12.326;2022-07-30T04:36:54;18.30;99.90
15997;DHT22;8103;51.340;12.326;2022-07-30T04:39:24;18.30;99.90
15997;DHT22;8103;51.340;12.326;2022-07-30T04:41:51;18.40;99.90
15997;DHT22;8103;51.340;12.326;2022-07-30T04:44:18;18.40;99.90
15997;DHT22;8103;51.340;12.326;2022-07-30T04:46:46;18.40;99.90
15997;DHT22;8103;51.340;12.326;2022-07-30T04:49:15;18.50;99.90
15997;DHT22;8103;51.340;12.326;2022-07-30T04:51:44;18.50;99.90
15997;DHT22;8103;51.340;12.326;2022-07-30T04:54:13;18.50;99.90
15997;DHT22;8103;51.340;12.326;2022-07-30T04:56:42;18.50;99.90
15997;DHT22;8103;51.340;12.326;2022-07-30T04:59:17;18.50;99.90
15997;DHT22;8103;51.340;12.326;2022-07-30T05:01:47;18.60;99.90
15997;DHT22;8103;51.340;12.326;2022-07-30T05:04:16;18.60;99.90
15997;DHT22;8103;51.340;12.326;2022-07-30T05:06:44;18.70;99.90
15997;DHT22;8103;51.340;12.326;2022-07-30T05:09:14;18.70;99.90
15997;DHT22;8103;51.340;12.326;2022-07-30T05:11:41;18.70;99.90
15997;DHT22;8103;51.340;12.326;2022-07-30T05:14:08;18.70;99.90
15997;DHT22;8103;51.340;12.326;2022-07-30T05:16:35;18.70;99.90
15997;DHT22;8103;51.340;12.326;2022-07-30T05:19:02;18.80;99.90
15997;DHT22;8103;51.340;12.326;2022-07-30T05:21:33;18.80;99.90
15997;DHT22;8103;51.340;12.326;2022-07-30T05:24:00;18.80;99.90
15997;DHT22;8103;51.340;12.326;2022-07-30T05:26:26;18.80;99.90
15997;DHT22;8103;51.340;12.326;2022-07-30T05:28:53;18.70;99.90
15997;DHT22;8103;51.340;12.326;2022-07-30T05:31:23;18.80;99.90
15997;DHT22;8103;51.340;12.326;2022-07-30T05:33:50;18.90;99.90
15997;DHT22;8103;51.340;12.326;2022-07-30T05:36:18;18.90;99.90
15997;DHT22;8103;51.340;12.326;2022-07-30T05:38:46;19.00;99.90
15997;DHT22;8103;51.340;12.326;2022-07-30T05:41:14;19.00;99.90
15997;DHT22;8103;51.340;12.326;2022-07-30T05:43:43;19.10;99.90
15997;DHT22;8103;51.340;12.326;2022-07-30T05:46:10;19.10;99.90
15997;DHT22;8103;51.340;12.326;2022-07-30T05:48:38;19.10;99.90
15997;DHT22;8103;51.340;12.326;2022-07-30T05:51:06;19.10;99.90
15997;DHT22;8103;51.340;12.326;2022-07-30T05:53:33;19.10;99.90
15997;DHT22;8103;51.340;12.326;2022-07-30T05:55:59;19.10;99.90
15997;DHT22;8103;51.340;12.326;2022-07-30T05:58:26;19.10;99.90
15997;DHT22;8103;51.340;12.326;2022-07-30T06:00:53;19.10;99.90
15997;DHT22;8103;51.340;12.326;2022-07-30T06:03:20;19.20;99.90
15997;DHT22;8103;51.340;12.326;2022-07-30T06:05:47;19.20;99.90
15997;DHT22;8103;51.340;12.326;2022-07-30T06:08:14;19.20;99.90
15997;DHT22;8103;51.340;12.326;2022-07-30T06:10:41;19.30;99.90
15997;DHT22;8103;51.340;12.326;2022-07-30T06:13:08;19.40;99.90
15997;DHT22;8103;51.340;12.326;2022-07-30T06:15:35;19.40;99.90
15997;DHT22;8103;51.340;12.326;2022-07-30T06:18:02;19.50;99.90
15997;DHT22;8103;51.340;12.326;2022-07-30T06:20:29;19.50;99.90
15997;DHT22;8103;51.340;12.326;2022-07-30T06:22:55;19.50;99.90
15997;DHT22;8103;51.340;12.326;2022-07-30T06:25:22;19.50;99.90
15997;DHT22;8103;51.340;12.326;2022-07-30T06:27:49;19.50;99.90
15997;DHT22;8103;51.340;12.326;2022-07-30T06:30:16;19.50;99.90
15997;DHT22;8103;51.340;12.326;2022-07-30T06:32:43;19.60;99.90
15997;DHT22;8103;51.340;12.326;2022-07-30T06:35:11;19.60;99.90
15997;DHT22;8103;51.340;12.326;2022-07-30T06:37:38;19.60;99.90
15997;DHT22;8103;51.340;12.326;2022-07-30T06:40:24;19.70;99.90
15997;DHT22;8103;51.340;12.326;2022-07-30T06:42:51;19.70;99.90
15997;DHT22;8103;51.340;12.326;2022-07-30T06:45:18;19.70;99.90
15997;DHT22;8103;51.340;12.326;2022-07-30T06:47:45;19.80;99.90
15997;DHT22;8103;51.340;12.326;2022-07-30T06:50:12;19.80;99.90
15997;DHT22;8103;51.340;12.326;2022-07-30T06:52:39;19.80;99.90
15997;DHT22;8103;51.340;12.326;2022-07-30T06:55:06;19.80;99.90
15997;DHT22;8103;51.340;12.326;2022-07-30T06:57:33;19.80;99.90
15997;DHT22;8103;51.340;12.326;2022-07-30T07:00:06;19.80;99.90
15997;DHT22;8103;51.340;12.326;2022-07-30T07:02:34;19.80;99.90
15997;DHT22;8103;51.340;12.326;2022-07-30T07:05:01;19.80;99.90
15997;DHT22;8103;51.340;12.326;2022-07-30T07:07:28;19.80;99.90
15997;DHT22;8103;51.340;12.326;2022-07-30T07:10:07;19.80;99.90
15997;DHT22;8103;51.340;12.326;2022-07-30T07:12:34;19.80;99.90
15997;DHT22;8103;51.340;12.326;2022-07-30T07:15:01;19.80;99.90
15997;DHT22;8103;51.340;12.326;2022-07-30T07:17:28;19.70;99.90
15997;DHT22;8103;51.340;12.326;2022-07-30T07:19:55;19.70;99.90
15997;DHT22;8103;51.340;12.326;2022-07-30T07:22:26;19.80;99.90
15997;DHT22;8103;51.340;12.326;2022-07-30T07:24:52;19.80;99.90
15997;DHT22;8103;51.340;12.326;2022-07-30T07:27:19;19.90;99.90
15997;DHT22;8103;51.340;12.326;2022-07-30T07:29:46;19.90;99.90
15997;DHT22;8103;51.340;12.326;2022-07-30T07:32:27;19.90;99.90
15997;DHT22;8103;51.340;12.326;2022-07-30T07:34:54;20.00;99.90
15997;DHT22;8103;51.340;12.326;2022-07-30T07:37:21;20.10;99.90
15997;DHT22;8103;51.340;12.326;2022-07-30T07:39:48;20.10;99.90
15997;DHT22;8103;51.340;12.326;2022-07-30T07:42:15;20.20;99.90
15997;DHT22;8103;51.340;12.326;2022-07-30T07:44:42;20.30;99.90
15997;DHT22;8103;51.340;12.326;2022-07-30T07:47:09;20.30;99.90
15997;DHT22;8103;51.340;12.326;2022-07-30T07:49:36;20.20;99.90
15997;DHT22;8103;51.340;12.326;2022-07-30T07:52:03;20.20;99.90
15997;DHT22;8103;51.340;12.326;2022-07-30T07:54:30;20.10;99.90
15997;DHT22;8103;51.340;12.326;2022-07-30T07:56:58;19.90;99.90
15997;DHT22;8103;51.340;12.326;2022-07-30T07:59:25;19.80;99.90
15997;DHT22;8103;51.340;12.326;2022-07-30T08:01:56;19.70;99.90
15997;DHT22;8103;51.340;12.326;2022-07-30T08:04:23;19.60;99.90
15997;DHT22;8103;51.340;12.326;2022-07-30T08:06:50;19.60;99.90
15997;DHT22;8103;51.340;12.326;2022-07-30T08:09:17;19.60;99.90
15997;DHT22;8103;51.340;12.326;2022-07-30T08:11:44;19.60;99.90
15997;DHT22;8103;51.340;12.326;2022-07-30T08:14:10;19.60;99.90
15997;DHT22;8103;51.340;12.326;2022-07-30T08:16:46;19.60;99.90
15997;DHT22;8103;51.340;12.326;2022-07-30T08:19:14;19.60;99.90
15997;DHT22;8103;51.340;12.326;2022-07-30T08:21:41;19.50;99.90
15997;DHT22;8103;51.340;12.326;2022-07-30T08:24:08;19.40;99.90
15997;DHT22;8103;51.340;12.326;2022-07-30T08:26:35;19.30;99.90
15997;DHT22;8103;51.340;12.326;2022-07-30T08:29:03;19.30;99.90
15997;DHT22;8103;51.340;12.326;2022-07-30T08:31:34;19.20;99.90
15997;DHT22;8103;51.340;12.326;2022-07-30T08:34:01;19.20;99.90
15997;DHT22;8103;51.340;12.326;2022-07-30T08:36:28;19.20;99.90
15997;DHT22;8103;51.340;12.326;2022-07-30T08:38:55;19.20;99.90
15997;DHT22;8103;51.340;12.326;2022-07-30T08:41:23;19.20;99.90
15997;DHT22;8103;51.340;12.326;2022-07-30T08:43:50;19.20;99.90
15997;DHT22;8103;51.340;12.326;2022-07-30T08:46:18;19.20;99.90
15997;DHT22;8103;51.340;12.326;2022-07-30T08:48:46;19.20;99.90
15997;DHT22;8103;51.340;12.326;2022-07-30T08:51:15;19.30;99.90
15997;DHT22;8103;51.340;12.326;2022-07-30T08:53:43;19.30;99.90
15997;DHT22;8103;51.340;12.326;2022-07-30T08:56:11;19.30;99.90
15997;DHT22;8103;51.340;12.326;2022-07-30T08:58:38;19.30;99.90
15997;DHT22;8103;51.340;12.326;2022-07-30T09:01:05;19.40;99.90
15997;DHT22;8103;51.340;12.326;2022-07-30T09:03:33;19.50;99.90
15997;DHT22;8103;51.340;12.326;2022-07-30T09:06:01;19.60;99.90
15997;DHT22;8103;51.340;12.326;2022-07-30T09:08:28;19.60;99.90
15997;DHT22;8103;51.340;12.326;2022-07-30T09:10:55;19.50;99.90
15997;DHT22;8103;51.340;12.326;2022-07-30T09:13:27;19.50;99.90
15997;DHT22;8103;51.340;12.326;2022-07-30T09:15:54;19.50;99.90
15997;DHT22;8103;51.340;12.326;2022-07-30T09:18:26;19.50;99.90
15997;DHT22;8103;51.340;12.326;2022-07-30T09:20:54;19.50;99.90
15997;DHT22;8103;51.340;12.326;2022-07-30T09:23:21;19.50;99.90
15997;DHT22;8103;51.340;12.326;2022-07-30T09:25:48;19.40;99.90
15997;DHT22;8103;51.340;12.326;2022-07-30T09:28:15;19.40;99.90
15997;DHT22;8103;51.340;12.326;2022-07-30T09:30:51;19.40;99.90
15997;DHT22;8103;51.340;12.326;2022-07-30T09:33:54;19.40;99.90
15997;DHT22;8103;51.340;12.326;2022-07-30T09:36:20;19.30;99.90
15997;DHT22;8103;51.340;12.326;2022-07-30T09:38:52;19.30;99.90
15997;DHT22;8103;51.340;12.326;2022-07-30T09:41:31;19.20;99.90
15997;DHT22;8103;51.340;12.326;2022-07-30T09:44:06;19.20;99.90
15997;DHT22;8103;51.340;12.326;2022-07-30T09:46:47;19.20;99.90
15997;DHT22;8103;51.340;12.326;2022-07-30T09:49:19;19.20;99.90
15997;DHT22;8103;51.340;12.326;2022-07-30T09:51:46;19.20;99.90
15997;DHT22;8103;51.340;12.326;2022-07-30T09:54:20;19.30;99.90
15997;DHT22;8103;51.340;12.326;2022-07-30T09:57:03;19.40;99.90
15997;DHT22;8103;51.340;12.326;2022-07-30T09:59:32;19.60;99.90
15997;DHT22;8103;51.340;12.326;2022-07-30T10:02:03;19.70;99.90
15997;DHT22;8103;51.340;12.326;2022-07-30T10:04:32;19.90;99.90
15997;DHT22;8103;51.340;12.326;2022-07-30T10:07:00;19.90;99.90
15997;DHT22;8103;51.340;12.326;2022-07-30T10:09:34;20.00;99.90
15997;DHT22;8103;51.340;12.326;2022-07-30T10:12:04;20.10;99.90
15997;DHT22;8103;51.340;12.326;2022-07-30T10:14:39;20.10;99.90
15997;DHT22;8103;51.340;12.326;2022-07-30T10:17:08;20.10;99.90
15997;DHT22;8103;51.340;12.326;2022-07-30T10:19:36;20.20;99.90
15997;DHT22;8103;51.340;12.326;2022-07-30T10:22:07;20.30;99.90
15997;DHT22;8103;51.340;12.326;2022-07-30T10:24:38;20.40;99.90
15997;DHT22;8103;51.340;12.326;2022-07-30T10:27:07;20.30;99.90
15997;DHT22;8103;51.340;12.326;2022-07-30T10:29:36;20.20;99.90
15997;DHT22;8103;51.340;12.326;2022-07-30T10:32:04;20.10;99.90
15997;DHT22;8103;51.340;12.326;2022-07-30T10:34:32;20.00;99.90
15997;DHT22;8103;51.340;12.326;2022-07-30T10:37:03;19.90;99.90
15997;DHT22;8103;51.340;12.326;2022-07-30T10:39:44;19.90;99.90
15997;DHT22;8103;51.340;12.326;2022-07-30T10:42:32;19.70;99.90
15997;DHT22;8103;51.340;12.326;2022-07-30T10:45:16;19.70;99.90
15997;DHT22;8103;51.340;12.326;2022-07-30T10:47:49;19.60;99.90
15997;DHT22;8103;51.340;12.326;2022-07-30T10:50:20;19.50;99.90
15997;DHT22;8103;51.340;12.326;2022-07-30T10:52:56;19.50;99.90
15997;DHT22;8103;51.340;12.326;2022-07-30T10:58:11;19.30;99.90
15997;DHT22;8103;51.340;12.326;2022-07-30T11:03:22;19.30;99.90
15997;DHT22;8103;51.340;12.326;2022-07-30T11:08:50;19.20;99.90
15997;DHT22;8103;51.340;12.326;2022-07-30T11:14:10;19.10;99.90
15997;DHT22;8103;51.340;12.326;2022-07-30T11:19:16;19.00;99.90
15997;DHT22;8103;51.340;12.326;2022-07-30T11:22:26;19.00;99.90
15997;DHT22;8103;51.340;12.326;2022-07-30T11:24:53;19.00;99.90
15997;DHT22;8103;51.340;12.326;2022-07-30T11:27:40;19.00;99.90
15997;DHT22;8103;51.340;12.326;2022-07-30T11:32:46;19.00;99.90
15997;DHT22;8103;51.340;12.326;2022-07-30T11:38:10;19.10;99.90
15997;DHT22;8103;51.340;12.326;2022-07-30T11:43:24;19.20;99.90
15997;DHT22;8103;51.340;12.326;2022-07-30T11:46:10;19.20;99.90
15997;DHT22;8103;51.340;12.326;2022-07-30T11:48:42;19.20;99.90
15997;DHT22;8103;51.340;12.326;2022-07-30T11:51:20;19.20;99.90
15997;DHT22;8103;51.340;12.326;2022-07-30T11:54:04;19.20;99.90
15997;DHT22;8103;51.340;12.326;2022-07-30T11:56:31;19.30;99.90
15997;DHT22;8103;51.340;12.326;2022-07-30T11:59:06;19.40;99.90
15997;DHT22;8103;51.340;12.326;2022-07-30T12:01:34;19.50;99.90
15997;DHT22;8103;51.340;12.326;2022-07-30T12:04:05;19.70;99.90
15997;DHT22;8103;51.340;12.326;2022-07-30T12:06:32;19.80;99.90
15997;DHT22;8103;51.340;12.326;2022-07-30T12:09:02;20.00;99.90
15997;DHT22;8103;51.340;12.326;2022-07-30T12:11:33;20.10;99.90
15997;DHT22;8103;51.340;12.326;2022-07-30T12:14:00;20.10;99.90
15997;DHT22;8103;51.340;12.326;2022-07-30T12:16:30;20.20;99.90
15997;DHT22;8103;51.340;12.326;2022-07-30T12:19:04;20.30;99.90
15997;DHT22;8103;51.340;12.326;2022-07-30T12:21:32;20.40;99.90
15997;DHT22;8103;51.340;12.326;2022-07-30T12:24:02;20.60;99.90
15997;DHT22;8103;51.340;12.326;2022-07-30T12:26:31;20.60;99.90
15997;DHT22;8103;51.340;12.326;2022-07-30T12:28:59;20.60;99.90
15997;DHT22;8103;51.340;12.326;2022-07-30T12:31:27;20.70;99.90
15997;DHT22;8103;51.340;12.326;2022-07-30T12:33:54;20.70;99.90
15997;DHT22;8103;51.340;12.326;2022-07-30T12:36:33;20.60;99.90
15997;DHT22;8103;51.340;12.326;2022-07-30T12:39:01;20.60;99.90
15997;DHT22;8103;51.340;12.326;2022-07-30T12:41:50;20.50;99.90
15997;DHT22;8103;51.340;12.326;2022-07-30T12:44:46;20.60;99.90
15997;DHT22;8103;51.340;12.326;2022-07-30T12:47:22;20.50;99.90
15997;DHT22;8103;51.340;12.326;2022-07-30T12:49:53;20.40;99.90
15997;DHT22;8103;51.340;12.326;2022-07-30T12:52:31;20.40;99.90
15997;DHT22;8103;51.340;12.326;2022-07-30T12:55:05;20.40;99.90
15997;DHT22;8103;51.340;12.326;2022-07-30T12:58:01;20.40;99.90
15997;DHT22;8103;51.340;12.326;2022-07-30T13:03:27;20.40;99.90
15997;DHT22;8103;51.340;12.326;2022-07-30T13:05:55;20.50;99.90
15997;DHT22;8103;51.340;12.326;2022-07-30T13:09:03;20.60;99.90
15997;DHT22;8103;51.340;12.326;2022-07-30T13:11:42;20.70;99.90
15997;DHT22;8103;51.340;12.326;2022-07-30T13:14:14;20.80;99.90
15997;DHT22;8103;51.340;12.326;2022-07-30T13:16:42;20.80;99.90
15997;DHT22;8103;51.340;12.326;2022-07-30T13:19:10;20.90;99.90
15997;DHT22;8103;51.340;12.326;2022-07-30T13:21:38;21.00;99.90
15997;DHT22;8103;51.340;12.326;2022-07-30T13:24:05;21.00;99.90
15997;DHT22;8103;51.340;12.326;2022-07-30T13:26:34;21.10;99.90
15997;DHT22;8103;51.340;12.326;2022-07-30T13:29:03;21.10;99.90
15997;DHT22;8103;51.340;12.326;2022-07-30T13:31:29;21.10;99.90
15997;DHT22;8103;51.340;12.326;2022-07-30T13:34:09;21.20;99.90
15997;DHT22;8103;51.340;12.326;2022-07-30T13:36:36;21.20;99.90
15997;DHT22;8103;51.340;12.326;2022-07-30T13:39:03;21.10;99.90
15997;DHT22;8103;51.340;12.326;2022-07-30T13:41:29;21.00;99.90
15997;DHT22;8103;51.340;12.326;2022-07-30T13:43:56;20.90;99.90
15997;DHT22;8103;51.340;12.326;2022-07-30T13:46:23;20.80;99.90
15997;DHT22;8103;51.340;12.326;2022-07-30T13:48:50;20.80;99.90
15997;DHT22;8103;51.340;12.326;2022-07-30T13:51:17;20.90;99.90
15997;DHT22;8103;51.340;12.326;2022-07-30T13:53:44;20.90;99.90
15997;DHT22;8103;51.340;12.326;2022-07-30T13:56:11;20.90;99.90
15997;DHT22;8103;51.340;12.326;2022-07-30T13:58:39;20.90;99.90
15997;DHT22;8103;51.340;12.326;2022-07-30T14:01:08;20.90;99.90
15997;DHT22;8103;51.340;12.326;2022-07-30T14:03:35;20.90;99.90
15997;DHT22;8103;51.340;12.326;2022-07-30T14:06:02;20.90;99.90
15997;DHT22;8103;51.340;12.326;2022-07-30T14:08:37;20.90;99.90
15997;DHT22;8103;51.340;12.326;2022-07-30T14:11:03;20.80;99.90
15997;DHT22;8103;51.340;12.326;2022-07-30T14:13:30;20.80;99.90
15997;DHT22;8103;51.340;12.326;2022-07-30T14:15:57;20.80;99.90
15997;DHT22;8103;51.340;12.326;2022-07-30T14:18:24;20.80;99.90
15997;DHT22;8103;51.340;12.326;2022-07-30T14:20:51;20.80;99.90
15997;DHT22;8103;51.340;12.326;2022-07-30T14:23:19;20.80;99.90
15997;DHT22;8103;51.340;12.326;2022-07-30T14:25:46;20.80;99.90
15997;DHT22;8103;51.340;12.326;2022-07-30T14:28:13;20.80;99.90
15997;DHT22;8103;51.340;12.326;2022-07-30T14:30:40;20.80;99.90
15997;DHT22;8103;51.340;12.326;2022-07-30T14:33:07;20.80;99.90
15997;DHT22;8103;51.340;12.326;2022-07-30T14:35:34;20.80;99.90
15997;DHT22;8103;51.340;12.326;2022-07-30T14:38:01;20.80;99.90
15997;DHT22;8103;51.340;12.326;2022-07-30T14:40:29;20.70;99.90
15997;DHT22;8103;51.340;12.326;2022-07-30T14:42:56;20.80;99.90
15997;DHT22;8103;51.340;12.326;2022-07-30T14:45:23;20.80;99.90
15997;DHT22;8103;51.340;12.326;2022-07-30T14:47:51;20.80;99.90
15997;DHT22;8103;51.340;12.326;2022-07-30T14:50:18;20.80;99.90
15997;DHT22;8103;51.340;12.326;2022-07-30T14:52:44;20.80;99.90
15997;DHT22;8103;51.340;12.326;2022-07-30T14:55:13;20.80;99.90
15997;DHT22;8103;51.340;12.326;2022-07-30T14:57:40;20.80;99.90
15997;DHT22;8103;51.340;12.326;2022-07-30T15:00:09;20.80;99.90
15997;DHT22;8103;51.340;12.326;2022-07-30T15:02:37;20.80;99.90
15997;DHT22;8103;51.340;12.326;2022-07-30T15:05:05;20.90;99.90
15997;DHT22;8103;51.340;12.326;2022-07-30T15:07:32;21.00;99.90
15997;DHT22;8103;51.340;12.326;2022-07-30T15:10:01;21.10;99.90
15997;DHT22;8103;51.340;12.326;2022-07-30T15:12:28;21.30;99.90
15997;DHT22;8103;51.340;12.326;2022-07-30T15:14:56;21.50;99.90
15997;DHT22;8103;51.340;12.326;2022-07-30T15:17:23;21.70;99.90
15997;DHT22;8103;51.340;12.326;2022-07-30T15:19:50;21.80;99.90
15997;DHT22;8103;51.340;12.326;2022-07-30T15:22:18;21.90;99.90
15997;DHT22;8103;51.340;12.326;2022-07-30T15:24:45;21.90;99.90
15997;DHT22;8103;51.340;12.326;2022-07-30T15:27:14;21.90;99.90
15997;DHT22;8103;51.340;12.326;2022-07-30T15:29:41;21.90;99.90
15997;DHT22;8103;51.340;12.326;2022-07-30T15:32:09;22.00;99.90
15997;DHT22;8103;51.340;12.326;2022-07-30T15:34:36;22.10;99.90
15997;DHT22;8103;51.340;12.326;2022-07-30T15:37:04;22.20;99.90
15997;DHT22;8103;51.340;12.326;2022-07-30T15:39:33;22.30;99.90
15997;DHT22;8103;51.340;12.326;2022-07-30T15:42:02;22.40;99.90
15997;DHT22;8103;51.340;12.326;2022-07-30T15:44:30;22.50;99.90
15997;DHT22;8103;51.340;12.326;2022-07-30T15:46:57;22.60;99.90
15997;DHT22;8103;51.340;12.326;2022-07-30T15:49:25;22.70;99.90
15997;DHT22;8103;51.340;12.326;2022-07-30T15:51:52;22.70;99.90
15997;DHT22;8103;51.340;12.326;2022-07-30T15:54:20;22.70;99.90
15997;DHT22;8103;51.340;12.326;2022-07-30T15:56:51;22.70;99.90
15997;DHT22;8103;51.340;12.326;2022-07-30T15:59:27;22.70;99.90
15997;DHT22;8103;51.340;12.326;2022-07-30T16:01:54;22.70;99.90
15997;DHT22;8103;51.340;12.326;2022-07-30T16:04:23;22.80;99.90
15997;DHT22;8103;51.340;12.326;2022-07-30T16:06:59;22.90;99.90
15997;DHT22;8103;51.340;12.326;2022-07-30T16:09:26;23.00;99.90
15997;DHT22;8103;51.340;12.326;2022-07-30T16:11:54;23.10;99.90